sensor_id;sensor_type;location;lat;lon;timestamp;pressure;altitude;pressure_sealevel;temperature;humidity
76864;BME280;65834;52.364;9.754;2023-03-01T00:00:27;102416.59;;;-1.08;nan
76864;BME280;65834;52.364;9.754;2023-03-01T00:02:57;102422.03;;;-1.12;nan
76864;BME280;65834;52.364;9.754;2023-03-01T00:05:29;102414.13;;;-1.13;nan
76864;BME280;65834;52.364;9.754;2023-03-01T00:07:58;102423.69;;;-1.09;nan
76864;BME280;65834;52.364;9.754;2023-03-01T00:10:28;102425.09;;;-1.21;nan
76864;BME280;65834;52.364;9.754;2023-03-01T00:12:57;102424.28;;;-1.23;nan
76864;BME280;65834;52.364;9.754;2023-03-01T00:15:27;102427.50;;;-1.15;nan
76864;BME280;65834;52.364;9.754;2023-03-01T00:17:56;102435.72;;;-1.21;nan
76864;BME280;65834;52.364;9.754;2023-03-01T00:20:28;102433.34;;;-1.27;nan
76864;BME280;65834;52.364;9.754;2023-03-01T00:22:58;102434.91;;;-1.23;nan
76864;BME280;65834;52.364;9.754;2023-03-01T00:25:27;102435.00;;;-1.24;nan
76864;BME280;65834;52.364;9.754;2023-03-01T00:27:57;102433.53;;;-1.31;nan
76864;BME280;65834;52.364;9.754;2023-03-01T00:30:26;102425.66;;;-1.33;nan
76864;BME280;65834;52.364;9.754;2023-03-01T00:32:56;102421.31;;;-1.35;nan
76864;BME280;65834;52.364;9.754;2023-03-01T00:35:25;102421.41;;;-1.37;nan
76864;BME280;65834;52.364;9.754;2023-03-01T00:37:58;102413.31;;;-1.34;nan
76864;BME280;65834;52.364;9.754;2023-03-01T00:40:28;102424.06;;;-1.37;nan
76864;BME280;65834;52.364;9.754;2023-03-01T00:42:58;102415.31;;;-1.39;nan
76864;BME280;65834;52.364;9.754;2023-03-01T00:45:28;102418.22;;;-1.45;nan
76864;BME280;65834;52.364;9.754;2023-03-01T00:47:58;102410.41;;;-1.48;nan
76864;BME280;65834;52.364;9.754;2023-03-01T00:50:27;102408.81;;;-1.52;nan
76864;BME280;65834;52.364;9.754;2023-03-01T00:52:59;102411.38;;;-1.50;nan
76864;BME280;65834;52.364;9.754;2023-03-01T00:55:29;102411.44;;;-1.52;nan
76864;BME280;65834;52.364;9.754;2023-03-01T00:57:58;102412.31;;;-1.51;nan
76864;BME280;65834;52.364;9.754;2023-03-01T01:00:28;102411.63;;;-1.56;nan
76864;BME280;65834;52.364;9.754;2023-03-01T01:02:57;102410.84;;;-1.58;nan
76864;BME280;65834;52.364;9.754;2023-03-01T01:05:27;102409.72;;;-1.53;nan
76864;BME280;65834;52.364;9.754;2023-03-01T01:07:59;102414.25;;;-1.55;nan
76864;BME280;65834;52.364;9.754;2023-03-01T01:10:29;102407.16;;;-1.54;nan
76864;BME280;65834;52.364;9.754;2023-03-01T01:12:59;102408.16;;;-1.57;nan
76864;BME280;65834;52.364;9.754;2023-03-01T01:15:29;102412.72;;;-1.60;nan
76864;BME280;65834;52.364;9.754;2023-03-01T01:18:02;102407.47;;;-1.62;nan
76864;BME280;65834;52.364;9.754;2023-03-01T01:20:32;102410.06;;;-1.60;nan
76864;BME280;65834;52.364;9.754;2023-03-01T01:23:05;102402.28;;;-1.65;nan
76864;BME280;65834;52.364;9.754;2023-03-01T01:25:35;102400.63;;;-1.68;nan
76864;BME280;65834;52.364;9.754;2023-03-01T01:28:05;102396.97;;;-1.65;nan
76864;BME280;65834;52.364;9.754;2023-03-01T01:30:34;102401.41;;;-1.66;nan
76864;BME280;65834;52.364;9.754;2023-03-01T01:33:04;102400.41;;;-1.63;nan
76864;BME280;65834;52.364;9.754;2023-03-01T01:35:33;102388.03;;;-1.63;nan
76864;BME280;65834;52.364;9.754;2023-03-01T01:38:08;102386.31;;;-1.63;nan
76864;BME280;65834;52.364;9.754;2023-03-01T01:40:43;102387.25;;;-1.65;nan
76864;BME280;65834;52.364;9.754;2023-03-01T01:43:18;102387.56;;;-1.72;nan
76864;BME280;65834;52.364;9.754;2023-03-01T01:45:49;102390.34;;;-1.75;nan
76864;BME280;65834;52.364;9.754;2023-03-01T01:48:20;102385.72;;;-1.70;nan
76864;BME280;65834;52.364;9.754;2023-03-01T01:50:56;102386.91;;;-1.77;nan
76864;BME280;65834;52.364;9.754;2023-03-01T01:53:30;102370.81;;;-1.73;nan
76864;BME280;65834;52.364;9.754;2023-03-01T01:56:01;102374.50;;;-1.77;nan
76864;BME280;65834;52.364;9.754;2023-03-01T01:58:32;102379.56;;;-1.71;nan
76864;BME280;65834;52.364;9.754;2023-03-01T02:01:01;102376.44;;;-1.80;nan
76864;BME280;65834;52.364;9.754;2023-03-01T02:03:35;102384.34;;;-1.79;nan
76864;BME280;65834;52.364;9.754;2023-03-01T02:06:13;102382.72;;;-1.83;nan
76864;BME280;65834;52.364;9.754;2023-03-01T02:08:50;102384.66;;;-1.86;nan
76864;BME280;65834;52.364;9.754;2023-03-01T02:11:21;102383.00;;;-1.89;nan
76864;BME280;65834;52.364;9.754;2023-03-01T02:13:53;102373.16;;;-1.87;nan
76864;BME280;65834;52.364;9.754;2023-03-01T02:16:23;102373.44;;;-1.93;nan
76864;BME280;65834;52.364;9.754;2023-03-01T02:18:56;102369.66;;;-1.87;nan
76864;BME280;65834;52.364;9.754;2023-03-01T02:21:37;102370.16;;;-1.99;nan
76864;BME280;65834;52.364;9.754;2023-03-01T02:24:20;102368.38;;;-1.99;nan
76864;BME280;65834;52.364;9.754;2023-03-01T02:26:55;102368.38;;;-1.99;nan
76864;BME280;65834;52.364;9.754;2023-03-01T02:29:28;102369.56;;;-2.06;nan
76864;BME280;65834;52.364;9.754;2023-03-01T02:31:59;102370.25;;;-2.01;nan
76864;BME280;65834;52.364;9.754;2023-03-01T02:34:30;102371.78;;;-1.95;nan
76864;BME280;65834;52.364;9.754;2023-03-01T02:37:02;102377.88;;;-1.93;nan
76864;BME280;65834;52.364;9.754;2023-03-01T02:39:34;102370.31;;;-2.02;nan
76864;BME280;65834;52.364;9.754;2023-03-01T02:42:11;102367.59;;;-2.01;nan
76864;BME280;65834;52.364;9.754;2023-03-01T02:44:45;102357.00;;;-2.01;nan
76864;BME280;65834;52.364;9.754;2023-03-01T02:47:15;102359.81;;;-2.05;nan
76864;BME280;65834;52.364;9.754;2023-03-01T02:49:44;102354.75;;;-2.10;nan
76864;BME280;65834;52.364;9.754;2023-03-01T02:52:27;102346.78;;;-2.10;nan
76864;BME280;65834;52.364;9.754;2023-03-01T02:55:01;102345.97;;;-2.12;nan
76864;BME280;65834;52.364;9.754;2023-03-01T02:57:34;102341.66;;;-2.14;nan
76864;BME280;65834;52.364;9.754;2023-03-01T03:00:09;102343.31;;;-2.12;nan
76864;BME280;65834;52.364;9.754;2023-03-01T03:02:46;102334.53;;;-2.12;nan
76864;BME280;65834;52.364;9.754;2023-03-01T03:05:20;102332.84;;;-2.15;nan
76864;BME280;65834;52.364;9.754;2023-03-01T03:07:53;102320.41;;;-2.13;nan
76864;BME280;65834;52.364;9.754;2023-03-01T03:10:25;102312.34;;;-2.10;nan
76864;BME280;65834;52.364;9.754;2023-03-01T03:12:57;102309.69;;;-2.10;nan
76864;BME280;65834;52.364;9.754;2023-03-01T03:15:31;102307.91;;;-2.09;nan
76864;BME280;65834;52.364;9.754;2023-03-01T03:18:04;102310.41;;;-2.06;nan
76864;BME280;65834;52.364;9.754;2023-03-01T03:20:34;102311.66;;;-2.15;nan
76864;BME280;65834;52.364;9.754;2023-03-01T03:23:04;102302.78;;;-2.14;nan
76864;BME280;65834;52.364;9.754;2023-03-01T03:25:33;102302.84;;;-2.15;nan
76864;BME280;65834;52.364;9.754;2023-03-01T03:28:04;102313.72;;;-2.22;nan
76864;BME280;65834;52.364;9.754;2023-03-01T03:30:40;102311.91;;;-2.21;nan
76864;BME280;65834;52.364;9.754;2023-03-01T03:33:11;102296.47;;;-2.32;nan
76864;BME280;65834;52.364;9.754;2023-03-01T03:35:42;102315.44;;;-2.42;nan
76864;BME280;65834;52.364;9.754;2023-03-01T03:38:13;102299.50;;;-2.41;nan
76864;BME280;65834;52.364;9.754;2023-03-01T03:40:47;102303.56;;;-2.32;nan
76864;BME280;65834;52.364;9.754;2023-03-01T03:43:18;102303.59;;;-2.34;nan
76864;BME280;65834;52.364;9.754;2023-03-01T03:45:51;102306.72;;;-2.44;nan
76864;BME280;65834;52.364;9.754;2023-03-01T03:48:20;102304.06;;;-2.44;nan
76864;BME280;65834;52.364;9.754;2023-03-01T03:50:51;102302.16;;;-2.41;nan
76864;BME280;65834;52.364;9.754;2023-03-01T03:53:23;102301.09;;;-2.37;nan
76864;BME280;65834;52.364;9.754;2023-03-01T03:55:53;102300.97;;;-2.34;nan
76864;BME280;65834;52.364;9.754;2023-03-01T03:58:24;102312.75;;;-2.41;nan
76864;BME280;65834;52.364;9.754;2023-03-01T04:00:56;102311.09;;;-2.43;nan
76864;BME280;65834;52.364;9.754;2023-03-01T04:03:28;102319.09;;;-2.45;nan
76864;BME280;65834;52.364;9.754;2023-03-01T04:05:59;102313.78;;;-2.45;nan
76864;BME280;65834;52.364;9.754;2023-03-01T04:08:29;102313.00;;;-2.47;nan
76864;BME280;65834;52.364;9.754;2023-03-01T04:11:00;102311.03;;;-2.42;nan
76864;BME280;65834;52.364;9.754;2023-03-01T04:13:53;102311.22;;;-2.46;nan
76864;BME280;65834;52.364;9.754;2023-03-01T04:16:26;102313.00;;;-2.47;nan
76864;BME280;65834;52.364;9.754;2023-03-01T04:18:56;102318.97;;;-2.42;nan
76864;BME280;65834;52.364;9.754;2023-03-01T04:21:26;102321.88;;;-2.48;nan
76864;BME280;65834;52.364;9.754;2023-03-01T04:23:56;102319.09;;;-2.45;nan
76864;BME280;65834;52.364;9.754;2023-03-01T04:26:25;102329.94;;;-2.51;nan
76864;BME280;65834;52.364;9.754;2023-03-01T04:28:55;102322.31;;;-2.58;nan
76864;BME280;65834;52.364;9.754;2023-03-01T04:31:27;102332.09;;;-2.60;nan
76864;BME280;65834;52.364;9.754;2023-03-01T04:33:57;102330.94;;;-2.53;nan
76864;BME280;65834;52.364;9.754;2023-03-01T04:36:28;102327.50;;;-2.55;nan
76864;BME280;65834;52.364;9.754;2023-03-01T04:38:58;102336.47;;;-2.59;nan
76864;BME280;65834;52.364;9.754;2023-03-01T04:41:39;102338.28;;;-2.61;nan
76864;BME280;65834;52.364;9.754;2023-03-01T04:44:10;102332.41;;;-2.68;nan
76864;BME280;65834;52.364;9.754;2023-03-01T04:46:42;102328.03;;;-2.69;nan
76864;BME280;65834;52.364;9.754;2023-03-01T04:49:12;102329.69;;;-2.66;nan
76864;BME280;65834;52.364;9.754;2023-03-01T04:51:42;102327.91;;;-2.66;nan
76864;BME280;65834;52.364;9.754;2023-03-01T04:54:12;102323.53;;;-2.67;nan
76864;BME280;65834;52.364;9.754;2023-03-01T04:56:41;102322.53;;;-2.64;nan
76864;BME280;65834;52.364;9.754;2023-03-01T04:59:11;102325.44;;;-2.70;nan
76864;BME280;65834;52.364;9.754;2023-03-01T05:01:43;102321.75;;;-2.66;nan
76864;BME280;65834;52.364;9.754;2023-03-01T05:04:12;102319.41;;;-2.74;nan
76864;BME280;65834;52.364;9.754;2023-03-01T05:06:43;102321.94;;;-2.71;nan
76864;BME280;65834;52.364;9.754;2023-03-01T05:09:12;102325.56;;;-2.74;nan
76864;BME280;65834;52.364;9.754;2023-03-01T05:11:42;102318.44;;;-2.71;nan
76864;BME280;65834;52.364;9.754;2023-03-01T05:14:11;102316.53;;;-2.68;nan
76864;BME280;65834;52.364;9.754;2023-03-01T05:16:43;102315.66;;;-2.68;nan
76864;BME280;65834;52.364;9.754;2023-03-01T05:19:13;102306.34;;;-2.79;nan
76864;BME280;65834;52.364;9.754;2023-03-01T05:21:49;102306.56;;;-2.83;nan
76864;BME280;65834;52.364;9.754;2023-03-01T05:24:32;102305.06;;;-2.90;nan
76864;BME280;65834;52.364;9.754;2023-03-01T05:27:03;102307.75;;;-2.92;nan
76864;BME280;65834;52.364;9.754;2023-03-01T05:29:32;102301.59;;;-2.92;nan
76864;BME280;65834;52.364;9.754;2023-03-01T05:32:05;102295.25;;;-2.88;nan
76864;BME280;65834;52.364;9.754;2023-03-01T05:34:35;102299.81;;;-2.92;nan
76864;BME280;65834;52.364;9.754;2023-03-01T05:37:05;102302.28;;;-2.87;nan
76864;BME280;65834;52.364;9.754;2023-03-01T05:39:36;102302.47;;;-2.92;nan
76864;BME280;65834;52.364;9.754;2023-03-01T05:42:05;102298.00;;;-2.90;nan
76864;BME280;65834;52.364;9.754;2023-03-01T05:44:35;102298.09;;;-2.93;nan
76864;BME280;65834;52.364;9.754;2023-03-01T05:47:07;102297.38;;;-2.96;nan
76864;BME280;65834;52.364;9.754;2023-03-01T05:49:36;102293.84;;;-2.97;nan
76864;BME280;65834;52.364;9.754;2023-03-01T05:52:06;102298.22;;;-2.96;nan
76864;BME280;65834;52.364;9.754;2023-03-01T05:54:36;102296.41;;;-2.95;nan
76864;BME280;65834;52.364;9.754;2023-03-01T05:57:05;102300.78;;;-2.94;nan
76864;BME280;65834;52.364;9.754;2023-03-01T05:59:35;102300.91;;;-2.97;nan
76864;BME280;65834;52.364;9.754;2023-03-01T06:02:07;102298.41;;;-3.00;nan
76864;BME280;65834;52.364;9.754;2023-03-01T06:04:37;102304.47;;;-2.98;nan
76864;BME280;65834;52.364;9.754;2023-03-01T06:07:06;102303.00;;;-3.05;nan
76864;BME280;65834;52.364;9.754;2023-03-01T06:09:36;102302.06;;;-3.04;nan
76864;BME280;65834;52.364;9.754;2023-03-01T06:12:06;102313.47;;;-3.02;nan
76864;BME280;65834;52.364;9.754;2023-03-01T06:14:35;102303.13;;;-3.08;nan
76864;BME280;65834;52.364;9.754;2023-03-01T06:17:07;102304.59;;;-3.01;nan
76864;BME280;65834;52.364;9.754;2023-03-01T06:19:37;102303.66;;;-2.99;nan
76864;BME280;65834;52.364;9.754;2023-03-01T06:22:07;102306.28;;;-2.99;nan
76864;BME280;65834;52.364;9.754;2023-03-01T06:24:36;102303.56;;;-2.97;nan
76864;BME280;65834;52.364;9.754;2023-03-01T06:27:06;102312.38;;;-2.97;nan
76864;BME280;65834;52.364;9.754;2023-03-01T06:29:35;102310.22;;;-2.87;nan
76864;BME280;65834;52.364;9.754;2023-03-01T06:32:09;102311.03;;;-2.85;nan
76864;BME280;65834;52.364;9.754;2023-03-01T06:34:39;102311.16;;;-2.88;nan
76864;BME280;65834;52.364;9.754;2023-03-01T06:37:08;102317.38;;;-2.89;nan
76864;BME280;65834;52.364;9.754;2023-03-01T06:39:38;102309.91;;;-2.80;nan
76864;BME280;65834;52.364;9.754;2023-03-01T06:42:08;102313.25;;;-2.75;nan
76864;BME280;65834;52.364;9.754;2023-03-01T06:44:39;102314.38;;;-2.58;nan
76864;BME280;65834;52.364;9.754;2023-03-01T06:47:11;102310.94;;;-2.18;nan
76864;BME280;65834;52.364;9.754;2023-03-01T06:49:41;102304.50;;;-1.93;nan
76864;BME280;65834;52.364;9.754;2023-03-01T06:52:10;102310.50;;;-1.88;nan
76864;BME280;65834;52.364;9.754;2023-03-01T06:54:40;102310.63;;;-1.91;nan
76864;BME280;65834;52.364;9.754;2023-03-01T06:57:09;102303.63;;;-1.93;nan
76864;BME280;65834;52.364;9.754;2023-03-01T06:59:39;102306.03;;;-1.87;nan
76864;BME280;65834;52.364;9.754;2023-03-01T07:02:13;102302.72;;;-1.92;nan
76864;BME280;65834;52.364;9.754;2023-03-01T07:04:43;102309.66;;;-1.90;nan
76864;BME280;65834;52.364;9.754;2023-03-01T07:07:12;102311.41;;;-1.89;nan
76864;BME280;65834;52.364;9.754;2023-03-01T07:09:42;102309.13;;;-1.78;nan
76864;BME280;65834;52.364;9.754;2023-03-01T07:12:11;102306.75;;;-1.63;nan
76864;BME280;65834;52.364;9.754;2023-03-01T07:14:41;102302.28;;;-1.63;nan
76864;BME280;65834;52.364;9.754;2023-03-01T07:17:13;102299.53;;;-1.60;nan
76864;BME280;65834;52.364;9.754;2023-03-01T07:19:42;102302.75;;;-1.53;nan
76864;BME280;65834;52.364;9.754;2023-03-01T07:22:12;102307.06;;;-1.32;nan
76864;BME280;65834;52.364;9.754;2023-03-01T07:24:41;102294.31;;;-1.24;nan
76864;BME280;65834;52.364;9.754;2023-03-01T07:27:11;102285.16;;;-1.17;nan
76864;BME280;65834;52.364;9.754;2023-03-01T07:29:41;102287.28;;;-1.06;nan
76864;BME280;65834;52.364;9.754;2023-03-01T07:32:13;102284.06;;;-1.13;nan
76864;BME280;65834;52.364;9.754;2023-03-01T07:34:43;102293.31;;;-1.03;nan
76864;BME280;65834;52.364;9.754;2023-03-01T07:37:12;102291.81;;;-0.90;nan
76864;BME280;65834;52.364;9.754;2023-03-01T07:39:42;102285.97;;;-0.98;nan
76864;BME280;65834;52.364;9.754;2023-03-01T07:42:11;102283.03;;;-0.92;nan
76864;BME280;65834;52.364;9.754;2023-03-01T07:44:41;102281.38;;;-0.76;nan
76864;BME280;65834;52.364;9.754;2023-03-01T07:47:13;102274.69;;;-0.66;nan
76864;BME280;65834;52.364;9.754;2023-03-01T07:49:42;102269.06;;;-0.60;nan
76864;BME280;65834;52.364;9.754;2023-03-01T07:52:12;102268.06;;;-0.57;nan
76864;BME280;65834;52.364;9.754;2023-03-01T07:54:42;102272.13;;;-0.50;nan
76864;BME280;65834;52.364;9.754;2023-03-01T07:57:12;102271.13;;;-0.47;nan
76864;BME280;65834;52.364;9.754;2023-03-01T07:59:41;102271.59;;;-0.39;nan
76864;BME280;65834;52.364;9.754;2023-03-01T08:02:13;102269.41;;;-0.31;nan
76864;BME280;65834;52.364;9.754;2023-03-01T08:04:43;102275.34;;;-0.26;nan
76864;BME280;65834;52.364;9.754;2023-03-01T08:07:13;102280.59;;;-0.08;nan
76864;BME280;65834;52.364;9.754;2023-03-01T08:09:42;102281.31;;;-0.04;nan
76864;BME280;65834;52.364;9.754;2023-03-01T08:12:12;102274.59;;;0.06;nan
76864;BME280;65834;52.364;9.754;2023-03-01T08:14:42;102270.91;;;0.09;nan
76864;BME280;65834;52.364;9.754;2023-03-01T08:17:16;102278.56;;;0.15;nan
76864;BME280;65834;52.364;9.754;2023-03-01T08:19:45;102285.47;;;0.34;nan
76864;BME280;65834;52.364;9.754;2023-03-01T08:22:15;102279.91;;;0.39;nan
76864;BME280;65834;52.364;9.754;2023-03-01T08:24:44;102277.63;;;0.48;nan
76864;BME280;65834;52.364;9.754;2023-03-01T08:27:15;102268.19;;;0.43;nan
76864;BME280;65834;52.364;9.754;2023-03-01T08:29:44;102271.88;;;0.56;nan
76864;BME280;65834;52.364;9.754;2023-03-01T08:32:16;102274.66;;;0.70;nan
76864;BME280;65834;52.364;9.754;2023-03-01T08:34:46;102274.50;;;0.73;nan
76864;BME280;65834;52.364;9.754;2023-03-01T08:37:15;102271.22;;;0.84;nan
76864;BME280;65834;52.364;9.754;2023-03-01T08:39:46;102274.34;;;0.92;nan
76864;BME280;65834;52.364;9.754;2023-03-01T08:42:16;102268.75;;;0.96;nan
76864;BME280;65834;52.364;9.754;2023-03-01T08:44:46;102268.56;;;1.15;nan
76864;BME280;65834;52.364;9.754;2023-03-01T08:47:18;102260.22;;;1.21;nan
76864;BME280;65834;52.364;9.754;2023-03-01T08:49:49;102264.88;;;1.33;nan
76864;BME280;65834;52.364;9.754;2023-03-01T08:52:19;102272.78;;;1.35;nan
76864;BME280;65834;52.364;9.754;2023-03-01T08:54:51;102268.72;;;1.43;nan
76864;BME280;65834;52.364;9.754;2023-03-01T08:57:20;102266.56;;;1.50;nan
76864;BME280;65834;52.364;9.754;2023-03-01T08:59:50;102270.56;;;1.57;nan
76864;BME280;65834;52.364;9.754;2023-03-01T09:02:25;102277.47;;;1.61;nan
76864;BME280;65834;52.364;9.754;2023-03-01T09:04:55;102275.66;;;1.61;nan
76864;BME280;65834;52.364;9.754;2023-03-01T09:07:26;102263.00;;;1.65;nan
76864;BME280;65834;52.364;9.754;2023-03-01T09:09:55;102265.81;;;1.78;nan
76864;BME280;65834;52.364;9.754;2023-03-01T09:12:25;102261.34;;;1.78;nan
76864;BME280;65834;52.364;9.754;2023-03-01T09:14:54;102265.34;;;1.85;nan
76864;BME280;65834;52.364;9.754;2023-03-01T09:17:26;102266.97;;;1.88;nan
76864;BME280;65834;52.364;9.754;2023-03-01T09:19:56;102258.78;;;1.91;nan
76864;BME280;65834;52.364;9.754;2023-03-01T09:22:26;102259.19;;;1.99;nan
76864;BME280;65834;52.364;9.754;2023-03-01T09:24:55;102258.72;;;2.06;nan
76864;BME280;65834;52.364;9.754;2023-03-01T09:27:26;102263.41;;;2.17;nan
76864;BME280;65834;52.364;9.754;2023-03-01T09:29:55;102254.84;;;2.26;nan
76864;BME280;65834;52.364;9.754;2023-03-01T09:32:29;102248.38;;;2.30;nan
76864;BME280;65834;52.364;9.754;2023-03-01T09:34:59;102240.75;;;2.38;nan
76864;BME280;65834;52.364;9.754;2023-03-01T09:37:34;102241.31;;;2.43;nan
76864;BME280;65834;52.364;9.754;2023-03-01T09:40:06;102237.69;;;2.44;nan
76864;BME280;65834;52.364;9.754;2023-03-01T09:42:46;102248.66;;;2.54;nan
76864;BME280;65834;52.364;9.754;2023-03-01T09:45:25;102247.41;;;2.59;nan
76864;BME280;65834;52.364;9.754;2023-03-01T09:47:58;102248.38;;;2.58;nan
76864;BME280;65834;52.364;9.754;2023-03-01T09:50:34;102243.41;;;2.66;nan
76864;BME280;65834;52.364;9.754;2023-03-01T09:53:08;102248.63;;;2.82;nan
76864;BME280;65834;52.364;9.754;2023-03-01T09:55:44;102244.78;;;2.86;nan
76864;BME280;65834;52.364;9.754;2023-03-01T09:58:32;63511.69;;;-142.11;100.00
76864;BME280;65834;52.364;9.754;2023-03-01T10:02:14;63511.69;;;-142.11;100.00
76864;BME280;65834;52.364;9.754;2023-03-01T10:05:54;63511.69;;;-142.11;100.00
76864;BME280;65834;52.364;9.754;2023-03-01T10:09:26;63511.69;;;-142.11;100.00
76864;BME280;65834;52.364;9.754;2023-03-01T10:12:59;63511.69;;;-142.11;100.00
76864;BME280;65834;52.364;9.754;2023-03-01T10:16:35;63511.69;;;-142.11;100.00
76864;BME280;65834;52.364;9.754;2023-03-01T10:20:17;63511.69;;;-142.11;100.00
76864;BME280;65834;52.364;9.754;2023-03-01T10:23:46;63511.69;;;-142.11;100.00
76864;BME280;65834;52.364;9.754;2023-03-01T10:27:24;63511.69;;;-142.11;100.00
76864;BME280;65834;52.364;9.754;2023-03-01T10:30:57;63511.69;;;-142.11;100.00
76864;BME280;65834;52.364;9.754;2023-03-01T10:34:29;63511.69;;;-142.11;100.00
76864;BME280;65834;52.364;9.754;2023-03-01T10:38:09;63511.69;;;-142.11;100.00
76864;BME280;65834;52.364;9.754;2023-03-01T10:41:55;63511.69;;;-142.11;100.00
76864;BME280;65834;52.364;9.754;2023-03-01T10:45:37;63511.69;;;-142.11;100.00
76864;BME280;65834;52.364;9.754;2023-03-01T10:49:14;63511.69;;;-142.11;100.00
76864;BME280;65834;52.364;9.754;2023-03-01T10:52:55;63511.69;;;-142.11;100.00
76864;BME280;65834;52.364;9.754;2023-03-01T10:56:28;63511.69;;;-142.11;100.00
76864;BME280;65834;52.364;9.754;2023-03-01T11:03:45;63511.69;;;-142.11;100.00
76864;BME280;65834;52.364;9.754;2023-03-01T11:07:32;63511.69;;;-142.11;100.00
76864;BME280;65834;52.364;9.754;2023-03-01T11:11:23;63511.69;;;-142.11;100.00
76864;BME280;65834;52.364;9.754;2023-03-01T11:14:53;63511.69;;;-142.11;100.00
76864;BME280;65834;52.364;9.754;2023-03-01T11:18:25;63511.69;;;-142.11;100.00
76864;BME280;65834;52.364;9.754;2023-03-01T11:22:12;63511.69;;;-142.11;100.00
76864;BME280;65834;52.364;9.754;2023-03-01T11:25:46;63511.69;;;-142.11;100.00
76864;BME280;65834;52.364;9.754;2023-03-01T11:29:21;63511.69;;;-142.11;100.00
76864;BME280;65834;52.364;9.754;2023-03-01T11:33:10;63511.69;;;-142.11;100.00
76864;BME280;65834;52.364;9.754;2023-03-01T11:36:43;63511.69;;;-142.11;100.00
76864;BME280;65834;52.364;9.754;2023-03-01T11:40:20;63511.69;;;-142.11;100.00
76864;BME280;65834;52.364;9.754;2023-03-01T11:44:00;63511.69;;;-142.11;100.00
76864;BME280;65834;52.364;9.754;2023-03-01T11:47:48;63511.69;;;-142.11;100.00
76864;BME280;65834;52.364;9.754;2023-03-01T11:51:32;63511.69;;;-142.11;100.00
76864;BME280;65834;52.364;9.754;2023-03-01T11:55:12;63511.69;;;-142.11;100.00
76864;BME280;65834;52.364;9.754;2023-03-01T11:59:00;63511.69;;;-142.11;100.00
76864;BME280;65834;52.364;9.754;2023-03-01T12:06:48;63511.69;;;-142.11;100.00
76864;BME280;65834;52.364;9.754;2023-03-01T12:10:28;63511.69;;;-142.11;100.00
76864;BME280;65834;52.364;9.754;2023-03-01T12:14:21;63511.69;;;-142.11;100.00
76864;BME280;65834;52.364;9.754;2023-03-01T12:18:13;63511.69;;;-142.11;100.00
76864;BME280;65834;52.364;9.754;2023-03-01T12:22:01;63511.69;;;-142.11;100.00
76864;BME280;65834;52.364;9.754;2023-03-01T12:25:43;63511.69;;;-142.11;100.00
76864;BME280;65834;52.364;9.754;2023-03-01T12:29:29;63511.69;;;-142.11;100.00
76864;BME280;65834;52.364;9.754;2023-03-01T12:33:02;63511.69;;;-142.11;100.00
76864;BME280;65834;52.364;9.754;2023-03-01T12:36:46;63511.69;;;-142.11;100.00
76864;BME280;65834;52.364;9.754;2023-03-01T12:40:29;63511.69;;;-142.11;100.00
76864;BME280;65834;52.364;9.754;2023-03-01T12:44:10;63511.69;;;-142.11;100.00
76864;BME280;65834;52.364;9.754;2023-03-01T12:47:55;63511.69;;;-142.11;100.00
76864;BME280;65834;52.364;9.754;2023-03-01T12:51:31;63511.69;;;-142.11;100.00
76864;BME280;65834;52.364;9.754;2023-03-01T12:55:07;63511.69;;;-142.11;100.00
76864;BME280;65834;52.364;9.754;2023-03-01T12:58:40;63511.69;;;-142.11;100.00
76864;BME280;65834;52.364;9.754;2023-03-01T13:02:23;63511.69;;;-142.11;100.00
76864;BME280;65834;52.364;9.754;2023-03-01T13:06:03;63511.69;;;-142.11;100.00
76864;BME280;65834;52.364;9.754;2023-03-01T13:09:38;63511.69;;;-142.11;100.00
76864;BME280;65834;52.364;9.754;2023-03-01T13:13:24;63511.69;;;-142.11;100.00
76864;BME280;65834;52.364;9.754;2023-03-01T13:15:55;102111.84;;;26.03;nan
76864;BME280;65834;52.364;9.754;2023-03-01T13:18:34;102108.78;;;25.99;nan
76864;BME280;65834;52.364;9.754;2023-03-01T13:21:03;102111.81;;;27.44;nan
76864;BME280;65834;52.364;9.754;2023-03-01T13:23:36;102108.84;;;29.49;nan
76864;BME280;65834;52.364;9.754;2023-03-01T13:26:10;102099.47;;;27.35;nan
76864;BME280;65834;52.364;9.754;2023-03-01T13:28:55;102100.28;;;28.83;nan
76864;BME280;65834;52.364;9.754;2023-03-01T13:34:46;102087.34;;;29.70;nan
76864;BME280;65834;52.364;9.754;2023-03-01T13:37:28;102098.31;;;30.81;nan
76864;BME280;65834;52.364;9.754;2023-03-01T13:40:01;102099.75;;;30.68;nan
76864;BME280;65834;52.364;9.754;2023-03-01T13:42:41;102086.69;;;30.53;nan
76864;BME280;65834;52.364;9.754;2023-03-01T13:45:34;102077.25;;;30.98;nan
76864;BME280;65834;52.364;9.754;2023-03-01T13:48:10;102078.44;;;32.28;nan
76864;BME280;65834;52.364;9.754;2023-03-01T13:50:48;102065.88;;;30.05;nan
76864;BME280;65834;52.364;9.754;2023-03-01T13:53:22;102071.28;;;30.61;nan
76864;BME280;65834;52.364;9.754;2023-03-01T13:55:56;102069.34;;;25.02;nan
76864;BME280;65834;52.364;9.754;2023-03-01T13:58:28;102065.00;;;17.21;nan
76864;BME280;65834;52.364;9.754;2023-03-01T14:01:00;102045.34;;;14.05;nan
76864;BME280;65834;52.364;9.754;2023-03-01T14:03:31;102039.31;;;12.90;nan
76864;BME280;65834;52.364;9.754;2023-03-01T14:06:09;102043.47;;;12.03;nan
76864;BME280;65834;52.364;9.754;2023-03-01T14:08:48;102047.44;;;11.21;nan
76864;BME280;65834;52.364;9.754;2023-03-01T14:11:31;102033.34;;;10.47;nan
76864;BME280;65834;52.364;9.754;2023-03-01T14:14:31;102033.94;;;9.11;nan
76864;BME280;65834;52.364;9.754;2023-03-01T14:17:18;102038.38;;;9.78;nan
76864;BME280;65834;52.364;9.754;2023-03-01T14:19:55;102029.38;;;9.41;nan
76864;BME280;65834;52.364;9.754;2023-03-01T14:22:32;102030.66;;;9.08;nan
76864;BME280;65834;52.364;9.754;2023-03-01T14:25:06;102024.72;;;8.85;nan
76864;BME280;65834;52.364;9.754;2023-03-01T14:27:51;102028.56;;;8.73;nan
76864;BME280;65834;52.364;9.754;2023-03-01T14:30:27;102024.09;;;8.43;nan
76864;BME280;65834;52.364;9.754;2023-03-01T14:32:59;102013.47;;;8.42;nan
76864;BME280;65834;52.364;9.754;2023-03-01T14:35:31;102003.19;;;8.26;nan
76864;BME280;65834;52.364;9.754;2023-03-01T14:38:04;102009.25;;;8.09;nan